createdAt,value
2023-05-03T00:01:17.619Z,99770.44
2023-05-03T00:03:23.959Z,99769.59
2023-05-03T00:05:29.699Z,99766.91
2023-05-03T00:07:37.376Z,99775.50
2023-05-03T00:09:43.136Z,99770.69
2023-05-03T00:11:48.413Z,99772.44
2023-05-03T00:13:53.481Z,99766.63
2023-05-03T00:15:58.736Z,99771.34
2023-05-03T00:18:03.861Z,99771.41
2023-05-03T00:20:12.199Z,99772.22
2023-05-03T00:22:17.758Z,99767.97
2023-05-03T00:24:25.360Z,99760.50
2023-05-03T00:26:31.445Z,99768.91
2023-05-03T00:28:36.567Z,99764.03
2023-05-03T00:30:41.722Z,99764.78
2023-05-03T00:32:46.913Z,99764.78
2023-05-03T00:34:56.722Z,99762.78
2023-05-03T00:37:02.262Z,99761.19
2023-05-03T00:39:07.366Z,99756.81
2023-05-03T00:41:15.878Z,99756.06
2023-05-03T00:43:21.143Z,99755.94
2023-05-03T00:45:26.437Z,99752.16
2023-05-03T00:47:31.901Z,99747.25
2023-05-03T00:49:37.364Z,99748.09
2023-05-03T00:51:43.749Z,99738.59
2023-05-03T00:53:49.443Z,99739.16
2023-05-03T00:55:56.676Z,99745.06
2023-05-03T00:58:05.951Z,99741.06
2023-05-03T01:00:13.693Z,99739.47
2023-05-03T01:02:19.085Z,99737.13
2023-05-03T01:04:26.192Z,99741.06
2023-05-03T01:06:42.176Z,99742.31
2023-05-03T01:08:53.662Z,99745.50
2023-05-03T01:11:07.417Z,99744.44
2023-05-03T01:13:25.480Z,99731.00
2023-05-03T01:16:02.844Z,99732.53
2023-05-03T01:18:17.936Z,99728.66
2023-05-03T01:20:28.496Z,99734.97
2023-05-03T01:22:49.619Z,99741.31
2023-05-03T01:25:04.532Z,99747.06
2023-05-03T01:27:09.636Z,99745.50
2023-05-03T01:29:14.676Z,99745.66
2023-05-03T01:31:26.787Z,99750.50
2023-05-03T01:33:46.430Z,99743.28
2023-05-03T01:36:00.323Z,99736.53
2023-05-03T01:38:09.218Z,99732.84
2023-05-03T01:40:19.962Z,99731.31
2023-05-03T01:42:27.304Z,99737.56
2023-05-03T01:44:33.318Z,99729.09
2023-05-03T01:46:44.357Z,99736.72
2023-05-03T01:48:50.878Z,99734.34
2023-05-03T01:50:56.224Z,99728.38
2023-05-03T01:53:02.933Z,99730.28
2023-05-03T01:55:09.687Z,99728.28
2023-05-03T01:57:17.349Z,99726.50
2023-05-03T01:59:22.371Z,99741.19
2023-05-03T02:01:27.717Z,99742.47
2023-05-03T02:03:33.442Z,99749.59
2023-05-03T02:05:38.623Z,99754.13
2023-05-03T02:07:43.720Z,99754.97
2023-05-03T02:09:49.045Z,99765.72
2023-05-03T02:11:55.677Z,99762.53
2023-05-03T02:14:03.812Z,99759.69
2023-05-03T02:16:09.756Z,99769.81
2023-05-03T02:18:16.882Z,99765.09
2023-05-03T02:20:22.259Z,99763.31
2023-05-03T02:22:27.514Z,99760.25
2023-05-03T02:24:36.364Z,99769.38
2023-05-03T02:26:41.463Z,99761.94
2023-05-03T02:28:48.575Z,99761.88
2023-05-03T02:30:56.209Z,99766.66
2023-05-03T02:33:02.940Z,99767.56
2023-05-03T02:35:09.896Z,99768.59
2023-05-03T02:37:14.901Z,99770.00
2023-05-03T02:39:20.454Z,99766.75
2023-05-03T02:41:25.697Z,99761.81
2023-05-03T02:43:31.940Z,99761.50
2023-05-03T02:45:39.156Z,99758.00
2023-05-03T02:47:47.149Z,99756.06
2023-05-03T02:49:53.916Z,99757.16
2023-05-03T02:51:59.486Z,99752.63
2023-05-03T02:54:04.800Z,99759.97
2023-05-03T02:56:13.002Z,99754.31
2023-05-03T02:58:18.196Z,99763.66
2023-05-03T03:00:23.787Z,99764.09
2023-05-03T03:02:29.324Z,99760.22
2023-05-03T03:04:37.453Z,99767.19
2023-05-03T03:06:42.798Z,99768.28
2023-05-03T03:08:47.837Z,99768.00
2023-05-03T03:10:53.110Z,99763.22
2023-05-03T03:12:58.324Z,99761.19
2023-05-03T03:15:13.493Z,99765.88
2023-05-03T03:17:18.669Z,99770.56
2023-05-03T03:19:23.724Z,99774.09
2023-05-03T03:21:32.901Z,99775.97
2023-05-03T03:23:37.944Z,99774.56
2023-05-03T03:25:45.153Z,99779.59
2023-05-03T03:27:50.303Z,99772.28
2023-05-03T03:29:55.566Z,99776.13
2023-05-03T03:32:00.778Z,99775.72
2023-05-03T03:34:06.149Z,99781.56
2023-05-03T03:36:12.278Z,99784.41
2023-05-03T03:38:23.229Z,99784.44
2023-05-03T03:40:35.341Z,99788.75
2023-05-03T03:42:40.761Z,99788.28
2023-05-03T03:44:46.046Z,99788.38
2023-05-03T03:46:51.766Z,99790.06
2023-05-03T03:48:57.432Z,99787.59
2023-05-03T03:51:05.332Z,99789.00
2023-05-03T03:53:16.788Z,99781.22
2023-05-03T03:55:25.352Z,99786.59
2023-05-03T03:57:32.895Z,99787.81
2023-05-03T03:59:37.952Z,99788.38
2023-05-03T04:01:43.033Z,99782.00
2023-05-03T04:03:49.797Z,99782.22
2023-05-03T04:05:56.165Z,99774.00
2023-05-03T04:08:01.388Z,99779.41
2023-05-03T04:10:11.078Z,99778.56
2023-05-03T04:12:20.996Z,99779.16
2023-05-03T04:14:26.106Z,99782.50
2023-05-03T04:16:31.814Z,99786.88
2023-05-03T04:18:39.751Z,99785.09
2023-05-03T04:20:46.864Z,99795.47
2023-05-03T04:22:53.934Z,99788.94
2023-05-03T04:25:02.898Z,99789.13
2023-05-03T04:27:09.413Z,99796.13
2023-05-03T04:29:20.458Z,99791.72
2023-05-03T04:31:26.235Z,99809.88
2023-05-03T04:33:32.936Z,99806.03
2023-05-03T04:35:41.552Z,99807.75
2023-05-03T04:37:50.557Z,99808.00
2023-05-03T04:40:00.036Z,99805.59
2023-05-03T04:42:05.116Z,99809.50
2023-05-03T04:44:10.436Z,99802.94
2023-05-03T04:46:18.718Z,99806.59
2023-05-03T04:48:24.759Z,99801.66
2023-05-03T04:50:30.226Z,99808.47
2023-05-03T04:52:35.293Z,99810.91
2023-05-03T04:54:40.350Z,99804.75
2023-05-03T04:56:45.383Z,99803.38
2023-05-03T04:58:55.913Z,99801.84
2023-05-03T05:01:02.588Z,99803.31
2023-05-03T05:03:12.472Z,99806.09
2023-05-03T05:05:18.924Z,99798.06
2023-05-03T05:07:26.123Z,99803.06
2023-05-03T05:09:32.532Z,99810.88
2023-05-03T05:11:40.572Z,99811.53
2023-05-03T05:13:46.305Z,99809.91
2023-05-03T05:15:51.508Z,99806.66
2023-05-03T05:17:57.114Z,99815.91
2023-05-03T05:20:07.358Z,99819.34
2023-05-03T05:22:13.229Z,99814.63
2023-05-03T05:24:25.132Z,99818.13
2023-05-03T05:26:30.757Z,99815.00
2023-05-03T05:28:36.587Z,99819.28
2023-05-03T05:30:41.739Z,99823.72
2023-05-03T05:32:46.887Z,99824.03
2023-05-03T05:34:55.696Z,99812.63
2023-05-03T05:37:07.513Z,99811.16
2023-05-03T05:39:13.375Z,99814.56
2023-05-03T05:41:19.174Z,99819.69
2023-05-03T05:43:25.084Z,99819.16
2023-05-03T05:45:30.351Z,99818.66
2023-05-03T05:47:36.341Z,99822.13
2023-05-03T05:49:42.045Z,99820.66
2023-05-03T05:51:47.736Z,99819.22
2023-05-03T05:53:55.931Z,99819.41
2023-05-03T05:56:02.378Z,99812.28
2023-05-03T05:58:12.109Z,99814.94
2023-05-03T06:00:24.730Z,99811.16
2023-05-03T06:02:29.896Z,99809.00
2023-05-03T06:04:36.318Z,99810.75
2023-05-03T06:06:41.613Z,99809.28
2023-05-03T06:08:49.883Z,99809.53
2023-05-03T06:10:57.589Z,99814.66
2023-05-03T06:13:05.177Z,99813.25
2023-05-03T06:15:12.965Z,99813.47
2023-05-03T06:17:18.386Z,99818.66
2023-05-03T06:19:24.870Z,99817.13
2023-05-03T06:21:31.259Z,99807.38
2023-05-03T06:23:37.952Z,99812.63
2023-05-03T06:25:43.041Z,99814.44
2023-05-03T06:27:50.866Z,99815.50
2023-05-03T06:29:59.197Z,99808.97
2023-05-03T06:32:04.940Z,99810.09
2023-05-03T06:34:10.943Z,99801.91
2023-05-03T06:36:18.639Z,99812.13
2023-05-03T06:38:23.991Z,99810.56
2023-05-03T06:40:29.285Z,99810.72
2023-05-03T06:42:34.317Z,99804.09
2023-05-03T06:45:00.411Z,99805.97
2023-05-03T06:47:05.529Z,99798.56
2023-05-03T06:49:11.421Z,99789.47
2023-05-03T06:51:16.549Z,99787.84
2023-05-03T06:53:21.569Z,99786.22
2023-05-03T06:55:26.784Z,99782.13
2023-05-03T06:57:31.854Z,99781.31
2023-05-03T06:59:37.124Z,99779.69
2023-05-03T07:01:44.765Z,99769.66
2023-05-03T07:03:50.168Z,99774.69
2023-05-03T07:05:55.811Z,99773.03
2023-05-03T07:08:00.880Z,99776.34
2023-05-03T07:10:06.656Z,99773.78
2023-05-03T07:12:12.140Z,99765.44
2023-05-03T07:14:17.229Z,99767.88
2023-05-03T07:16:22.831Z,99749.34
2023-05-03T07:18:30.903Z,99757.66
2023-05-03T07:20:36.228Z,99760.84
2023-05-03T07:22:41.287Z,99754.06
2023-05-03T07:24:46.354Z,99754.75
2023-05-03T07:26:51.368Z,99747.81
2023-05-03T07:28:56.753Z,99748.44
2023-05-03T07:31:02.540Z,99741.69
2023-05-03T07:33:08.386Z,99740.69
2023-05-03T07:35:16.881Z,99741.50
2023-05-03T07:37:23.517Z,99748.78
2023-05-03T07:39:28.678Z,99747.88
2023-05-03T07:41:33.890Z,99747.09
2023-05-03T07:43:38.974Z,99742.72
2023-05-03T07:45:44.039Z,99737.38
2023-05-03T07:47:49.436Z,99737.50
2023-05-03T07:49:54.481Z,99749.84
2023-05-03T07:52:02.144Z,99746.16
2023-05-03T07:54:07.853Z,99745.06
2023-05-03T07:56:13.393Z,99735.84
2023-05-03T07:58:23.205Z,99738.16
2023-05-03T08:00:33.921Z,99748.16
2023-05-03T08:02:39.099Z,99739.53
2023-05-03T08:04:44.372Z,99736.28
2023-05-03T08:06:50.198Z,99741.13
2023-05-03T08:08:57.867Z,99731.47
2023-05-03T08:11:02.880Z,99738.38
2023-05-03T08:13:08.777Z,99737.31
2023-05-03T08:15:14.082Z,99738.25
2023-05-03T08:17:19.398Z,99740.44
2023-05-03T08:19:24.447Z,99736.97
2023-05-03T08:21:30.417Z,99735.06
2023-05-03T08:23:35.682Z,99739.16
2023-05-03T08:25:43.611Z,99737.97
2023-05-03T08:27:48.884Z,99739.59
2023-05-03T08:29:53.924Z,99733.00
2023-05-03T08:31:59.131Z,99729.50
2023-05-03T08:34:05.135Z,99729.28
2023-05-03T08:36:11.138Z,99735.69
2023-05-03T08:38:17.326Z,99731.97
2023-05-03T08:40:24.888Z,99736.84
2023-05-03T08:42:33.959Z,99738.19
2023-05-03T08:44:44.669Z,99731.22
2023-05-03T08:46:49.797Z,99727.47
2023-05-03T08:48:57.015Z,99722.81
2023-05-03T08:51:07.269Z,99719.00
2023-05-03T08:53:13.401Z,99721.50
2023-05-03T08:55:19.281Z,99708.72
2023-05-03T08:57:26.926Z,99719.91
2023-05-03T08:59:34.559Z,99710.78
2023-05-03T09:01:40.511Z,99716.81
2023-05-03T09:03:53.335Z,99712.34
2023-05-03T09:06:02.175Z,99714.88
2023-05-03T09:08:10.026Z,99713.69
2023-05-03T09:10:26.443Z,99707.66
2023-05-03T09:12:41.443Z,99710.84
2023-05-03T09:14:51.007Z,99706.63
2023-05-03T09:16:56.332Z,99710.88
2023-05-03T09:19:03.499Z,99706.38
2023-05-03T09:21:08.995Z,99704.56
2023-05-03T09:23:14.054Z,99701.72
2023-05-03T09:25:19.443Z,99705.69
2023-05-03T09:27:28.077Z,99704.78
2023-05-03T09:29:36.256Z,99703.28
2023-05-03T09:32:02.979Z,99701.13
2023-05-03T09:34:25.290Z,99703.28
2023-05-03T09:36:31.595Z,99701.94
2023-05-03T09:38:39.403Z,99702.81
2023-05-03T09:40:51.107Z,99699.44
2023-05-03T09:43:09.968Z,99700.63
2023-05-03T09:45:15.787Z,99702.25
2023-05-03T09:47:25.653Z,99697.16
2023-05-03T09:49:30.940Z,99700.56
2023-05-03T09:51:36.733Z,99698.06
2023-05-03T09:53:43.320Z,99699.53
2023-05-03T09:55:50.968Z,99700.66
2023-05-03T09:57:58.129Z,99701.19
2023-05-03T10:00:03.759Z,99702.06
2023-05-03T10:02:18.049Z,99700.03
2023-05-03T10:04:29.807Z,99694.63
2023-05-03T10:06:39.049Z,99685.09
2023-05-03T10:08:49.674Z,99687.69
2023-05-03T10:10:56.350Z,99693.00
2023-05-03T10:13:02.498Z,99689.84
2023-05-03T10:15:10.784Z,99680.84
2023-05-03T10:17:29.259Z,99682.72
2023-05-03T10:19:53.605Z,99673.00
2023-05-03T10:22:08.154Z,99672.47
2023-05-03T10:24:16.409Z,99666.75
2023-05-03T10:26:22.706Z,99667.88
2023-05-03T10:28:27.949Z,99666.69
2023-05-03T10:30:35.196Z,99664.53
2023-05-03T10:32:43.573Z,99661.38
2023-05-03T10:34:58.721Z,99653.66
2023-05-03T10:37:06.361Z,99662.16
2023-05-03T10:39:17.927Z,99665.97
2023-05-03T10:41:28.049Z,99662.19
2023-05-03T10:43:47.242Z,99668.09
2023-05-03T10:45:54.557Z,99657.31
2023-05-03T10:48:23.242Z,99661.81
2023-05-03T10:50:34.344Z,99649.69
2023-05-03T10:52:50.742Z,99646.38
2023-05-03T10:54:55.744Z,99644.91
2023-05-03T10:57:01.937Z,99642.66
2023-05-03T10:59:07.224Z,99640.03
2023-05-03T11:01:14.773Z,99635.25
2023-05-03T11:03:54.538Z,99633.22
2023-05-03T11:06:03.326Z,99633.31
2023-05-03T11:08:13.888Z,99626.38
2023-05-03T11:10:20.587Z,99626.59
2023-05-03T11:12:25.636Z,99640.31
2023-05-03T11:14:30.672Z,99638.56
2023-05-03T11:16:36.726Z,99631.53
2023-05-03T11:18:42.428Z,99622.25
2023-05-03T11:20:48.024Z,99627.72
2023-05-03T11:22:56.112Z,99624.25
2023-05-03T11:25:01.558Z,99621.41
2023-05-03T11:27:07.964Z,99615.72
2023-05-03T11:29:14.727Z,99610.56
2023-05-03T11:31:19.792Z,99612.06
2023-05-03T11:33:25.153Z,99613.56
2023-05-03T11:35:33.357Z,99609.41
2023-05-03T11:37:38.840Z,99606.03
2023-05-03T11:39:47.992Z,99606.69
2023-05-03T11:42:07.374Z,99606.84
2023-05-03T11:44:17.579Z,99609.31
2023-05-03T11:46:29.426Z,99598.13
2023-05-03T11:48:35.532Z,99619.06
2023-05-03T11:50:54.658Z,99610.59
2023-05-03T11:53:00.114Z,99617.34
2023-05-03T11:55:11.414Z,99602.00
2023-05-03T11:57:17.478Z,99599.78
2023-05-03T11:59:22.769Z,99607.00
2023-05-03T12:01:29.982Z,99610.72
2023-05-03T12:03:36.800Z,99599.53
2023-05-03T12:05:44.363Z,99603.38
2023-05-03T12:07:50.611Z,99609.53
2023-05-03T12:10:10.658Z,99604.00
2023-05-03T12:12:30.230Z,99598.59
2023-05-03T12:14:59.856Z,99604.72
2023-05-03T12:17:05.191Z,99601.13
2023-05-03T12:19:12.475Z,99587.34
2023-05-03T12:23:28.795Z,99580.31
2023-05-03T12:25:38.771Z,99578.25
2023-05-03T12:28:00.040Z,99574.44
2023-05-03T12:30:17.538Z,99575.25
2023-05-03T12:32:23.402Z,99572.31
2023-05-03T12:34:34.933Z,99572.13
2023-05-03T12:36:43.788Z,99576.38
2023-05-03T12:38:56.283Z,99564.09
2023-05-03T12:41:02.287Z,99565.06
2023-05-03T12:43:10.836Z,99561.03
2023-05-03T12:45:17.713Z,99561.94
2023-05-03T12:47:28.910Z,99565.06
2023-05-03T12:49:37.990Z,99554.66
2023-05-03T12:51:49.171Z,99549.66
2023-05-03T12:54:01.976Z,99551.81
2023-05-03T12:56:12.990Z,99544.19
2023-05-03T13:00:35.557Z,99548.28
2023-05-03T13:03:21.092Z,99538.75
2023-05-03T13:05:13.530Z,99524.91
2023-05-03T13:07:29.649Z,99526.75
2023-05-03T13:10:12.070Z,99532.47
2023-05-03T13:12:02.779Z,99522.63
2023-05-03T13:14:14.289Z,99523.56
2023-05-03T13:16:20.136Z,99524.22
2023-05-03T13:18:26.104Z,99515.91
2023-05-03T13:20:31.422Z,99509.06
2023-05-03T13:22:36.641Z,99508.81
2023-05-03T13:24:42.275Z,99500.78
2023-05-03T13:26:47.861Z,99494.50
2023-05-03T13:28:52.940Z,99497.81
2023-05-03T13:31:00.990Z,99490.31
2023-05-03T13:33:06.265Z,99487.25
2023-05-03T13:35:13.418Z,99475.28
2023-05-03T13:37:20.098Z,99486.50
2023-05-03T13:39:25.243Z,99476.19
2023-05-03T13:41:30.795Z,99471.34
2023-05-03T13:43:35.842Z,99466.69
2023-05-03T13:45:41.141Z,99466.16
2023-05-03T13:48:14.275Z,99468.53
2023-05-03T13:50:15.087Z,99465.13
2023-05-03T13:52:20.521Z,99466.06
2023-05-03T13:54:25.673Z,99468.34
2023-05-03T13:56:31.693Z,99465.69
2023-05-03T13:58:37.964Z,99463.63
2023-05-03T14:00:43.259Z,99468.06
2023-05-03T14:02:51.974Z,99457.44
2023-05-03T14:04:57.386Z,99460.00
2023-05-03T14:07:03.315Z,99453.56
2023-05-03T14:09:09.184Z,99444.78
2023-05-03T14:11:18.013Z,99439.16
2023-05-03T14:13:23.586Z,99445.59
2023-05-03T14:15:29.013Z,99437.31
2023-05-03T14:17:35.037Z,99430.00
2023-05-03T14:19:43.151Z,99434.13
2023-05-03T14:21:49.844Z,99427.03
2023-05-03T14:23:57.146Z,99429.91
2023-05-03T14:26:02.513Z,99426.91
2023-05-03T14:28:08.034Z,99422.81
2023-05-03T14:30:14.499Z,99427.53
2023-05-03T14:32:20.076Z,99417.09
2023-05-03T14:34:25.891Z,99419.28
2023-05-03T14:36:36.347Z,99425.88
2023-05-03T14:38:41.530Z,99412.59
2023-05-03T14:40:46.684Z,99418.75
2023-05-03T14:42:52.199Z,99420.88
2023-05-03T14:44:57.848Z,99424.25
2023-05-03T14:47:03.522Z,99401.75
2023-05-03T14:49:09.075Z,99407.81
2023-05-03T14:51:15.113Z,99410.44
2023-05-03T14:53:23.112Z,99417.34
2023-05-03T14:55:28.402Z,99399.44
2023-05-03T14:57:34.067Z,99391.84
2023-05-03T14:59:39.759Z,99402.59
2023-05-03T15:01:44.844Z,99399.50
2023-05-03T15:03:50.137Z,99401.53
2023-05-03T15:05:55.153Z,99396.41
2023-05-03T15:08:00.200Z,99394.44
2023-05-03T15:10:10.259Z,99398.03
2023-05-03T15:12:15.299Z,99405.34
2023-05-03T15:14:20.646Z,99395.81
2023-05-03T15:16:26.436Z,99400.16
2023-05-03T15:18:31.490Z,99399.28
2023-05-03T15:20:36.976Z,99398.06
2023-05-03T15:22:42.246Z,99401.66
2023-05-03T15:24:47.601Z,99402.28
2023-05-03T15:26:55.220Z,99400.91
2023-05-03T15:29:00.243Z,99393.25
2023-05-03T15:31:05.301Z,99396.41
2023-05-03T15:33:11.127Z,99391.41
2023-05-03T15:35:16.613Z,99393.41
2023-05-03T15:37:21.623Z,99391.44
2023-05-03T15:39:26.683Z,99392.22
2023-05-03T15:41:32.249Z,99387.13
2023-05-03T15:43:39.871Z,99383.59
2023-05-03T15:45:45.198Z,99394.66
2023-05-03T15:47:50.362Z,99384.88
2023-05-03T15:49:56.501Z,99395.03
2023-05-03T15:52:01.642Z,99388.69
2023-05-03T15:54:07.320Z,99382.81
2023-05-03T15:56:12.333Z,99390.31
2023-05-03T15:58:19.039Z,99382.78
2023-05-03T16:00:28.062Z,99385.03
2023-05-03T16:02:33.422Z,99378.59
2023-05-03T16:04:39.917Z,99382.09
2023-05-03T16:06:45.080Z,99378.09
2023-05-03T16:08:50.125Z,99378.75
2023-05-03T16:10:55.429Z,99374.94
2023-05-03T16:13:00.487Z,99384.38
2023-05-03T16:15:05.668Z,99374.66
2023-05-03T16:17:15.591Z,99377.78
2023-05-03T16:19:21.391Z,99376.59
2023-05-03T16:21:27.092Z,99379.56
2023-05-03T16:23:32.117Z,99376.97
2023-05-03T16:25:37.129Z,99369.06
2023-05-03T16:27:42.584Z,99364.34
2023-05-03T16:29:47.681Z,99374.59
2023-05-03T16:31:52.757Z,99371.50
2023-05-03T16:34:00.574Z,99370.66
2023-05-03T16:36:05.649Z,99368.47
2023-05-03T16:38:10.688Z,99367.66
2023-05-03T16:40:16.072Z,99369.09
2023-05-03T16:42:21.835Z,99359.28
2023-05-03T16:44:27.002Z,99373.75
2023-05-03T16:46:34.039Z,99362.84
2023-05-03T16:48:39.109Z,99372.09
2023-05-03T16:50:48.437Z,99376.59
2023-05-03T16:52:53.493Z,99371.53
2023-05-03T16:54:58.543Z,99370.19
2023-05-03T16:57:04.411Z,99369.78
2023-05-03T16:59:09.433Z,99370.56
2023-05-03T17:01:14.656Z,99370.75
2023-05-03T17:03:19.882Z,99377.00
2023-05-03T17:05:26.405Z,99374.84
2023-05-03T17:07:34.146Z,99380.41
2023-05-03T17:09:39.470Z,99371.78
2023-05-03T17:11:44.487Z,99375.34
2023-05-03T17:13:50.032Z,99373.19
2023-05-03T17:15:55.060Z,99365.50
2023-05-03T17:18:04.228Z,99365.28
2023-05-03T17:20:12.992Z,99361.69
2023-05-03T17:22:18.286Z,99358.56
2023-05-03T17:24:27.592Z,99357.69
2023-05-03T17:26:34.196Z,99361.66
2023-05-03T17:28:40.248Z,99363.88
2023-05-03T17:30:45.432Z,99364.63
2023-05-03T17:32:50.458Z,99380.50
2023-05-03T17:34:56.970Z,99384.44
2023-05-03T17:37:02.206Z,99379.53
2023-05-03T17:39:07.933Z,99390.81
2023-05-03T17:41:15.544Z,99390.88
2023-05-03T17:43:21.541Z,99393.56
2023-05-03T17:45:28.771Z,99400.31
2023-05-03T17:47:34.281Z,99399.59
2023-05-03T17:49:39.373Z,99405.13
2023-05-03T17:51:44.387Z,99405.72
2023-05-03T17:53:49.639Z,99413.44
2023-05-03T17:55:54.658Z,99413.16
2023-05-03T17:58:03.135Z,99421.50
2023-05-03T18:00:15.631Z,99417.66
2023-05-03T18:02:21.792Z,99410.75
2023-05-03T18:04:27.218Z,99421.03
2023-05-03T18:06:32.632Z,99427.81
2023-05-03T18:08:37.931Z,99421.09
2023-05-03T18:10:45.312Z,99430.59
2023-05-03T18:12:50.440Z,99427.75
2023-05-03T18:14:59.709Z,99437.97
2023-05-03T18:17:04.731Z,99425.41
2023-05-03T18:19:10.099Z,99420.91
2023-05-03T18:21:15.372Z,99427.56
2023-05-03T18:23:20.404Z,99420.75
2023-05-03T18:25:25.988Z,99434.09
2023-05-03T18:27:31.495Z,99431.88
2023-05-03T18:29:36.743Z,99430.75
2023-05-03T18:31:44.988Z,99433.28
2023-05-03T18:33:50.089Z,99436.63
2023-05-03T18:35:56.141Z,99445.56
2023-05-03T18:38:01.238Z,99444.75
2023-05-03T18:40:07.475Z,99453.84
2023-05-03T18:42:13.150Z,99441.56
2023-05-03T18:44:18.416Z,99453.88
2023-05-03T18:46:23.818Z,99444.53
2023-05-03T18:48:31.583Z,99452.47
2023-05-03T18:50:38.429Z,99447.16
2023-05-03T18:52:43.847Z,99452.63
2023-05-03T18:54:49.783Z,99454.84
2023-05-03T18:56:55.497Z,99457.94
2023-05-03T18:59:00.853Z,99445.69
2023-05-03T19:01:06.881Z,99452.69
2023-05-03T19:03:12.324Z,99453.69
2023-05-03T19:05:20.172Z,99454.16
2023-05-03T19:07:25.781Z,99450.19
2023-05-03T19:09:30.856Z,99448.53
2023-05-03T19:11:36.269Z,99448.53
2023-05-03T19:13:42.293Z,99456.19
2023-05-03T19:15:47.296Z,99452.97
2023-05-03T19:17:52.302Z,99464.81
2023-05-03T19:19:57.325Z,99461.69
2023-05-03T19:22:05.728Z,99471.22
2023-05-03T19:24:14.310Z,99471.38
2023-05-03T19:26:19.316Z,99469.88
2023-05-03T19:28:24.333Z,99467.47
2023-05-03T19:30:29.353Z,99473.41
2023-05-03T19:32:37.052Z,99474.34
2023-05-03T19:34:42.235Z,99471.09
2023-05-03T19:36:47.243Z,99477.03
2023-05-03T19:38:54.824Z,99470.41
2023-05-03T19:41:00.540Z,99472.19
2023-05-03T19:43:06.651Z,99477.38
2023-05-03T19:45:13.191Z,99481.69
2023-05-03T19:47:18.193Z,99473.38
2023-05-03T19:49:24.059Z,99474.31
2023-05-03T19:51:29.528Z,99479.50
2023-05-03T19:53:35.099Z,99484.59
2023-05-03T19:55:42.739Z,99479.72
2023-05-03T19:57:47.759Z,99474.78
2023-05-03T19:59:52.942Z,99473.16
2023-05-03T20:01:58.023Z,99475.66
2023-05-03T20:04:03.556Z,99471.47
2023-05-03T20:06:09.102Z,99479.84
2023-05-03T20:08:14.625Z,99479.91
2023-05-03T20:10:19.904Z,99482.41
2023-05-03T20:12:27.577Z,99476.63
2023-05-03T20:14:32.628Z,99481.63
2023-05-03T20:16:39.363Z,99486.75
2023-05-03T20:18:45.813Z,99488.44
2023-05-03T20:20:50.907Z,99480.13
2023-05-03T20:22:55.976Z,99475.94
2023-05-03T20:25:01.117Z,99484.41
2023-05-03T20:27:06.737Z,99481.03
2023-05-03T20:29:14.583Z,99481.97
2023-05-03T20:31:20.051Z,99477.84
2023-05-03T20:33:25.093Z,99480.44
2023-05-03T20:35:30.183Z,99473.78
2023-05-03T20:37:36.424Z,99482.06
2023-05-03T20:39:43.403Z,99475.53
2023-05-03T20:41:48.522Z,99477.22
2023-05-03T20:43:55.416Z,99476.41
2023-05-03T20:46:04.053Z,99468.16
2023-05-03T20:48:09.779Z,99468.19
2023-05-03T20:50:15.043Z,99471.53
2023-05-03T20:52:20.123Z,99472.41
2023-05-03T20:54:25.166Z,99471.56
2023-05-03T20:56:30.246Z,99466.59
2023-05-03T20:58:35.465Z,99474.94
2023-05-03T21:00:40.480Z,99470.78
2023-05-03T21:02:53.364Z,99476.59
2023-05-03T21:04:58.659Z,99481.59
2023-05-03T21:07:03.979Z,99482.44
2023-05-03T21:09:08.984Z,99477.44
2023-05-03T21:11:13.992Z,99475.75
2023-05-03T21:13:19.119Z,99475.75
2023-05-03T21:15:24.212Z,99474.06
2023-05-03T21:17:29.327Z,99472.41
2023-05-03T21:19:36.957Z,99482.41
2023-05-03T21:21:42.397Z,99480.72
2023-05-03T21:23:47.605Z,99485.69
2023-05-03T21:25:55.194Z,99485.69
2023-05-03T21:28:01.107Z,99489.00
2023-05-03T21:30:06.551Z,99484.00
2023-05-03T21:32:11.785Z,99490.59
2023-05-03T21:34:16.929Z,99477.22
2023-05-03T21:36:24.663Z,99482.22
2023-05-03T21:38:29.748Z,99476.31
2023-05-03T21:40:34.827Z,99482.13
2023-05-03T21:42:39.934Z,99480.47
2023-05-03T21:44:44.942Z,99477.94
2023-05-03T21:46:50.007Z,99487.88
2023-05-03T21:48:55.105Z,99483.66
2023-05-03T21:51:00.173Z,99481.94
2023-05-03T21:53:07.945Z,99478.53
2023-05-03T21:55:15.513Z,99481.84
2023-05-03T21:57:20.756Z,99476.75
2023-05-03T21:59:25.830Z,99479.25
2023-05-03T22:01:31.622Z,99476.75
2023-05-03T22:03:36.808Z,99473.44
2023-05-03T22:05:43.286Z,99480.06
2023-05-03T22:07:50.534Z,99476.75
2023-05-03T22:09:58.151Z,99478.38
2023-05-03T22:12:19.143Z,99471.63
2023-05-03T22:14:27.584Z,99470.03
2023-05-03T22:16:33.210Z,99473.31
2023-05-03T22:18:38.697Z,99480.69
2023-05-03T22:20:43.851Z,99476.63
2023-05-03T22:22:49.110Z,99475.69
2023-05-03T22:24:54.137Z,99476.53
2023-05-03T22:27:02.543Z,99476.34
2023-05-03T22:29:08.113Z,99477.94
2023-05-03T22:31:13.732Z,99481.16
2023-05-03T22:33:19.288Z,99476.09
2023-05-03T22:35:24.330Z,99479.28
2023-05-03T22:37:29.616Z,99480.91
2023-05-03T22:39:34.636Z,99474.97
2023-05-03T22:41:39.937Z,99472.44
2023-05-03T22:43:47.866Z,99470.66
2023-05-03T22:45:52.916Z,99465.59
2023-05-03T22:47:58.749Z,99467.34
2023-05-03T22:50:04.130Z,99469.03
2023-05-03T22:52:09.349Z,99463.22
2023-05-03T22:54:14.597Z,99462.47
2023-05-03T22:56:19.641Z,99462.75
2023-05-03T22:58:26.072Z,99468.50
2023-05-03T23:00:34.149Z,99456.00
2023-05-03T23:02:39.296Z,99460.91
2023-05-03T23:04:44.768Z,99456.59
2023-05-03T23:06:49.820Z,99449.13
2023-05-03T23:08:55.093Z,99452.53
2023-05-03T23:11:00.281Z,99445.91
2023-05-03T23:13:05.453Z,99453.28
2023-05-03T23:15:12.280Z,99447.44
2023-05-03T23:17:20.024Z,99442.47
2023-05-03T23:19:25.035Z,99447.34
2023-05-03T23:21:30.335Z,99442.56
2023-05-03T23:23:35.658Z,99445.91
2023-05-03T23:25:40.931Z,99440.78
2023-05-03T23:27:46.446Z,99439.06
2023-05-03T23:29:53.383Z,99443.84
2023-05-03T23:31:58.910Z,99448.00
2023-05-03T23:34:07.687Z,99442.25
2023-05-03T23:36:13.165Z,99440.47
2023-05-03T23:38:18.289Z,99441.25
2023-05-03T23:40:24.288Z,99437.06
2023-05-03T23:42:29.342Z,99447.16
2023-05-03T23:44:46.918Z,99434.56
2023-05-03T23:46:59.642Z,99434.53
2023-05-03T23:49:07.680Z,99441.38
2023-05-03T23:51:13.211Z,99432.22
2023-05-03T23:53:18.238Z,99427.19
2023-05-03T23:55:24.020Z,99430.47
2023-05-03T23:57:29.062Z,99430.41
2023-05-03T23:59:34.108Z,99426.94
